Aviation Digital Data Service (ADDS)

Output produced by METARs form (2223 UTC 20 August 2014)
found at http://www.aviationweather.gov/adds/metars/
 
KIPT 202154Z 16012G19KT 10SM FEW020 BKN065 OVC080 24/19 A2995 RMK AO2 SLP139 T02440194
KIPT 202054Z 10SM FEW022 OVC075 24/20 A2995 RMK AO2 RAE18 SLP137 P0000 60001 T02390200 53001
KIPT 201954Z 17008G16KT 10SM -RA FEW031 BKN090 OVC110 24/21 A2994 RMK AO2 SLP134 P0001 T02440206
KIPT 201854Z 00000KT 10SM -RA FEW029 BKN046 OVC110 24/19 A2994 RMK AO2 RAB25 SLP134 P0000 T02440194
KIPT 201845Z 21003KT 10SM -RA SCT025 BKN035 OVC065 24/19 A2994 RMK AO2 RAB25 P0000 T02440194
KIPT 201754Z 00000KT 10SM BKN019 OVC026 25/19 A2994 RMK AO2 SLP136 T02500194 10250 20194 58008
KIPT 201654Z 00000KT 10SM OVC017 24/19 A2995 RMK AO2 SLP140 T02390189
KIPT 201554Z VRB03KT 10SM OVC016 24/18 A2996 RMK AO2 SLP141 T02390183 $
KIPT 201454Z 07007KT 10SM FEW005 BKN019 OVC024 23/18 A2997 RMK AO2 SLP144 T02280183 53007 $
KIPT 201354Z 08007KT 10SM FEW005 BKN017 OVC024 22/18 A2996 RMK AO2 SLP141 T02220178 $
KIPT 201254Z 13003KT 10SM SCT005 BKN025 BKN039 21/18 A2995 RMK AO2 SLP139 T02060178 $
KIPT 201154Z 00000KT 8SM SCT005 OVC014 19/17 A2994 RMK AO2 SLP137 T01940172 10194 20178 53012 $
KIPT 201054Z 02003KT 9SM FEW005 BKN014 BKN034 18/16 A2993 RMK AO2 SLP131 T01830161 $
KIPT 201032Z 00000KT 8SM FEW005 BKN014 BKN034 18/17 A2993 RMK AO2 T01830167 $
KIPT 200954Z AUTO 00000KT 9SM FEW016 BKN043 OVC070 18/16 A2992 RMK AO2 SLP128 T01830161 $
KIPT 200854Z AUTO 00000KT 10SM SCT034 OVC044 18/16 A2991 RMK AO2 SLP124 T01830161 56002 $
KIPT 200754Z AUTO 00000KT 9SM BKN039 18/16 A2991 RMK AO2 SLP125 T01830161 $
KIPT 200654Z AUTO 00000KT 10SM SCT033 18/16 A2991 RMK AO2 SLP124 T01830161 $
KIPT 200554Z AUTO 00000KT 9SM SCT036 OVC048 19/17 A2991 RMK AO2 SLP126 T01890167 10239 20183 51004 $
KIPT 200454Z AUTO 00000KT 10SM SCT039 SCT050 BKN060 19/17 A2991 RMK AO2 SLP125 T01940167 402720133 $
KIPT 200354Z AUTO 00000KT 10SM OVC045 20/17 A2991 RMK AO2 SLP124 T02000172 $
KIPT 200254Z AUTO 00000KT 10SM BKN046 19/17 A2990 RMK AO2 SLP123 T01940172 53009 $
KIPT 200154Z 34003KT 10SM CLR 21/17 A2990 RMK AO2 SLP121 T02110172 $
KIPT 200054Z 00000KT 10SM CLR 22/17 A2987 RMK AO2 SLP114 T02170172 $
KIPT 192354Z 00000KT 10SM BKN046 24/17 A2987 RMK AO2 SLP114 T02390167 10272 20239 53004
KIPT 192254Z VRB03KT 10SM OVC050 24/17 A2987 RMK AO2 SLP111 T02440167
KIPT 192154Z 18008KT 10SM BKN060 BKN090 26/17 A2986 RMK AO2 SLP109 T02560172
KIPT 192054Z 16008KT 10SM SCT100 26/17 A2986 RMK AO2 SLP109 T02560172 56007
KIPT 191954Z 10SM BKN100 26/17 A2987 RMK AO2 SLP112 T02610167
KIPT 191854Z VRB05KT 10SM SCT050 26/17 A2987 RMK AO2 SLP113 T02610167
KIPT 191754Z VRB03KT 10SM BKN048 26/16 A2988 RMK AO2 SLP117 T02560156 10256 20150 58009
KIPT 191654Z 15003KT 10SM SCT050 SCT100 24/14 A2989 RMK AO2 SLP118 T02390144
KIPT 191554Z 04005KT 10SM BKN046 BKN100 23/13 A2991 RMK AO2 SLP125 T02280133
KIPT 191454Z 11004KT 10SM FEW048 BKN100 21/14 A2991 RMK AO2 SLP126 T02060139 53006
KIPT 191354Z VRB03KT 10SM SCT044 SCT090 19/13 A2991 RMK AO2 SLP124 T01940128
KIPT 191254Z 00000KT 10SM SCT041 17/13 A2989 RMK AO2 SLP119 T01720128
KIPT 191154Z 00000KT 10SM FEW042 SCT100 15/12 A2989 RMK AO2 SLP120 T01500117 10150 20133 53004 $
KIPT 191054Z 35005KT 10SM CLR 14/11 A2989 RMK AO2 SLP118 T01390111 $